sensor_id;sensor_type;location;lat;lon;timestamp;pressure;altitude;pressure_sealevel;temperature;humidity
72612;BME280;60655;52.182;4.474;2024-03-22T00:00:01;101980.97;;;11.32;100.00
72612;BME280;60655;52.182;4.474;2024-03-22T00:02:02;101961.50;;;11.25;100.00
72612;BME280;60655;52.182;4.474;2024-03-22T00:04:03;101961.72;;;11.30;100.00
72612;BME280;60655;52.182;4.474;2024-03-22T00:06:04;101960.06;;;11.29;100.00
72612;BME280;60655;52.182;4.474;2024-03-22T00:08:05;101956.59;;;11.29;100.00
72612;BME280;60655;52.182;4.474;2024-03-22T00:10:07;101962.16;;;11.34;100.00
72612;BME280;60655;52.182;4.474;2024-03-22T00:12:08;101954.09;;;11.21;100.00
72612;BME280;60655;52.182;4.474;2024-03-22T00:14:09;101953.84;;;11.15;100.00
72612;BME280;60655;52.182;4.474;2024-03-22T00:16:10;101944.78;;;11.10;100.00
72612;BME280;60655;52.182;4.474;2024-03-22T00:18:11;101934.16;;;11.10;100.00
72612;BME280;60655;52.182;4.474;2024-03-22T00:20:12;101929.66;;;11.10;100.00
72612;BME280;60655;52.182;4.474;2024-03-22T00:22:13;101928.81;;;11.10;100.00
72612;BME280;60655;52.182;4.474;2024-03-22T00:24:15;101922.69;;;11.09;100.00
72612;BME280;60655;52.182;4.474;2024-03-22T00:26:16;101924.06;;;11.05;100.00
72612;BME280;60655;52.182;4.474;2024-03-22T00:28:17;101913.19;;;11.00;100.00
72612;BME280;60655;52.182;4.474;2024-03-22T00:30:18;101909.97;;;11.05;100.00
72612;BME280;60655;52.182;4.474;2024-03-22T00:32:20;101911.34;;;11.01;100.00
72612;BME280;60655;52.182;4.474;2024-03-22T00:34:21;101908.50;;;11.02;100.00
72612;BME280;60655;52.182;4.474;2024-03-22T00:36:22;101907.47;;;10.97;100.00
72612;BME280;60655;52.182;4.474;2024-03-22T00:38:22;101900.50;;;10.96;100.00
72612;BME280;60655;52.182;4.474;2024-03-22T00:40:23;101903.19;;;11.02;100.00
72612;BME280;60655;52.182;4.474;2024-03-22T00:42:24;101901.34;;;11.03;100.00
72612;BME280;60655;52.182;4.474;2024-03-22T00:44:25;101877.81;;;11.00;100.00
72612;BME280;60655;52.182;4.474;2024-03-22T00:46:26;101881.91;;;11.02;100.00
72612;BME280;60655;52.182;4.474;2024-03-22T00:48:27;101883.31;;;10.98;100.00
72612;BME280;60655;52.182;4.474;2024-03-22T00:50:28;101879.84;;;10.98;100.00
72612;BME280;60655;52.182;4.474;2024-03-22T00:52:29;101881.88;;;10.96;100.00
72612;BME280;60655;52.182;4.474;2024-03-22T00:54:30;101881.44;;;10.92;100.00
72612;BME280;60655;52.182;4.474;2024-03-22T00:56:31;101880.63;;;10.92;100.00
72612;BME280;60655;52.182;4.474;2024-03-22T00:58:32;101892.09;;;10.92;100.00
72612;BME280;60655;52.182;4.474;2024-03-22T01:00:33;101896.31;;;10.87;100.00
72612;BME280;60655;52.182;4.474;2024-03-22T01:02:35;101899.56;;;10.82;100.00
72612;BME280;60655;52.182;4.474;2024-03-22T01:04:35;101901.78;;;10.78;100.00
72612;BME280;60655;52.182;4.474;2024-03-22T01:06:36;101899.50;;;10.75;100.00
72612;BME280;60655;52.182;4.474;2024-03-22T01:08:37;101893.72;;;10.72;100.00
72612;BME280;60655;52.182;4.474;2024-03-22T01:10:38;101901.50;;;10.73;100.00
72612;BME280;60655;52.182;4.474;2024-03-22T01:12:39;101888.41;;;10.72;100.00
72612;BME280;60655;52.182;4.474;2024-03-22T01:14:40;101874.69;;;10.68;100.00
72612;BME280;60655;52.182;4.474;2024-03-22T01:16:41;101888.75;;;10.62;100.00
72612;BME280;60655;52.182;4.474;2024-03-22T01:18:43;101886.41;;;10.53;100.00
72612;BME280;60655;52.182;4.474;2024-03-22T01:20:44;101860.53;;;10.40;100.00
72612;BME280;60655;52.182;4.474;2024-03-22T01:22:45;101872.03;;;10.47;100.00
72612;BME280;60655;52.182;4.474;2024-03-22T01:24:46;101874.44;;;10.42;100.00
72612;BME280;60655;52.182;4.474;2024-03-22T01:26:47;101878.75;;;10.43;100.00
72612;BME280;60655;52.182;4.474;2024-03-22T01:28:47;101865.91;;;10.46;100.00
72612;BME280;60655;52.182;4.474;2024-03-22T01:30:48;101879.44;;;10.52;100.00
72612;BME280;60655;52.182;4.474;2024-03-22T01:32:50;101879.06;;;10.55;100.00
72612;BME280;60655;52.182;4.474;2024-03-22T01:34:50;101879.91;;;10.55;100.00
72612;BME280;60655;52.182;4.474;2024-03-22T01:36:51;101878.25;;;10.54;100.00
72612;BME280;60655;52.182;4.474;2024-03-22T01:38:52;101860.84;;;10.52;100.00
72612;BME280;60655;52.182;4.474;2024-03-22T01:40:53;101872.75;;;10.56;100.00
72612;BME280;60655;52.182;4.474;2024-03-22T01:42:57;101870.09;;;10.56;100.00
72612;BME280;60655;52.182;4.474;2024-03-22T01:44:59;101887.16;;;10.46;100.00
72612;BME280;60655;52.182;4.474;2024-03-22T01:47:00;101884.69;;;10.45;100.00
72612;BME280;60655;52.182;4.474;2024-03-22T01:49:01;101871.78;;;10.42;100.00
72612;BME280;60655;52.182;4.474;2024-03-22T01:51:03;101866.63;;;10.34;100.00
72612;BME280;60655;52.182;4.474;2024-03-22T01:53:05;101874.22;;;10.37;100.00
72612;BME280;60655;52.182;4.474;2024-03-22T01:55:07;101876.47;;;10.40;100.00
72612;BME280;60655;52.182;4.474;2024-03-22T01:57:08;101871.78;;;10.42;100.00
72612;BME280;60655;52.182;4.474;2024-03-22T01:59:09;101869.56;;;10.45;100.00
72612;BME280;60655;52.182;4.474;2024-03-22T02:01:10;101871.66;;;10.50;100.00
72612;BME280;60655;52.182;4.474;2024-03-22T02:03:11;101862.69;;;10.51;100.00
72612;BME280;60655;52.182;4.474;2024-03-22T02:05:13;101865.59;;;10.56;100.00
72612;BME280;60655;52.182;4.474;2024-03-22T02:07:15;101847.00;;;10.56;100.00
72612;BME280;60655;52.182;4.474;2024-03-22T02:09:16;101840.28;;;10.60;100.00
72612;BME280;60655;52.182;4.474;2024-03-22T02:11:17;101838.03;;;10.57;100.00
72612;BME280;60655;52.182;4.474;2024-03-22T02:13:19;101824.66;;;10.51;100.00
72612;BME280;60655;52.182;4.474;2024-03-22T02:15:20;101835.81;;;10.61;100.00
72612;BME280;60655;52.182;4.474;2024-03-22T02:17:21;101839.66;;;10.58;100.00
72612;BME280;60655;52.182;4.474;2024-03-22T02:19:22;101826.13;;;10.53;100.00
72612;BME280;60655;52.182;4.474;2024-03-22T02:21:23;101824.53;;;10.59;100.00
72612;BME280;60655;52.182;4.474;2024-03-22T02:25:32;101811.44;;;10.57;100.00
72612;BME280;60655;52.182;4.474;2024-03-22T02:27:34;101810.19;;;10.53;100.00
72612;BME280;60655;52.182;4.474;2024-03-22T02:29:35;101789.94;;;10.52;100.00
72612;BME280;60655;52.182;4.474;2024-03-22T02:31:36;101800.63;;;10.59;100.00
72612;BME280;60655;52.182;4.474;2024-03-22T02:33:37;101799.19;;;10.56;100.00
72612;BME280;60655;52.182;4.474;2024-03-22T02:35:38;101804.94;;;10.60;100.00
72612;BME280;60655;52.182;4.474;2024-03-22T02:37:38;101805.31;;;10.57;100.00
72612;BME280;60655;52.182;4.474;2024-03-22T02:39:39;101800.19;;;10.55;100.00
72612;BME280;60655;52.182;4.474;2024-03-22T02:41:40;101787.91;;;10.54;100.00
72612;BME280;60655;52.182;4.474;2024-03-22T02:43:41;101794.13;;;10.61;100.00
72612;BME280;60655;52.182;4.474;2024-03-22T02:45:42;101780.13;;;10.53;100.00
72612;BME280;60655;52.182;4.474;2024-03-22T02:47:43;101780.38;;;10.58;100.00
72612;BME280;60655;52.182;4.474;2024-03-22T02:49:44;101772.84;;;10.61;100.00
72612;BME280;60655;52.182;4.474;2024-03-22T02:51:45;101761.84;;;10.64;100.00
72612;BME280;60655;52.182;4.474;2024-03-22T02:53:46;101757.94;;;10.60;100.00
72612;BME280;60655;52.182;4.474;2024-03-22T02:55:47;101762.66;;;10.65;100.00
72612;BME280;60655;52.182;4.474;2024-03-22T02:57:49;101764.50;;;10.64;100.00
72612;BME280;60655;52.182;4.474;2024-03-22T02:59:50;101767.34;;;10.63;100.00
72612;BME280;60655;52.182;4.474;2024-03-22T03:01:51;101757.34;;;10.65;100.00
72612;BME280;60655;52.182;4.474;2024-03-22T03:03:52;101752.06;;;10.71;100.00
72612;BME280;60655;52.182;4.474;2024-03-22T03:05:53;101737.31;;;10.62;100.00
72612;BME280;60655;52.182;4.474;2024-03-22T03:07:54;101747.13;;;10.68;100.00
72612;BME280;60655;52.182;4.474;2024-03-22T03:09:55;101746.75;;;10.71;100.00
72612;BME280;60655;52.182;4.474;2024-03-22T03:11:56;101745.91;;;10.71;100.00
72612;BME280;60655;52.182;4.474;2024-03-22T03:13:57;101734.47;;;10.70;100.00
72612;BME280;60655;52.182;4.474;2024-03-22T03:15:58;101734.09;;;10.73;100.00
72612;BME280;60655;52.182;4.474;2024-03-22T03:17:59;101735.72;;;10.68;100.00
72612;BME280;60655;52.182;4.474;2024-03-22T03:20:00;101727.94;;;10.66;100.00
72612;BME280;60655;52.182;4.474;2024-03-22T03:22:01;101729.34;;;10.69;100.00
72612;BME280;60655;52.182;4.474;2024-03-22T03:24:02;101711.34;;;10.64;100.00
72612;BME280;60655;52.182;4.474;2024-03-22T03:26:03;101719.72;;;10.61;100.00
72612;BME280;60655;52.182;4.474;2024-03-22T03:28:04;101715.41;;;10.60;100.00
72612;BME280;60655;52.182;4.474;2024-03-22T03:30:05;101711.78;;;10.68;100.00
72612;BME280;60655;52.182;4.474;2024-03-22T03:32:06;101702.59;;;10.70;100.00
72612;BME280;60655;52.182;4.474;2024-03-22T03:34:07;101692.13;;;10.62;100.00
72612;BME280;60655;52.182;4.474;2024-03-22T03:36:08;101696.88;;;10.67;100.00
72612;BME280;60655;52.182;4.474;2024-03-22T03:38:09;101697.47;;;10.69;100.00
72612;BME280;60655;52.182;4.474;2024-03-22T03:40:10;101691.94;;;10.70;100.00
72612;BME280;60655;52.182;4.474;2024-03-22T03:42:11;101698.53;;;10.74;100.00
72612;BME280;60655;52.182;4.474;2024-03-22T03:44:12;101698.31;;;10.76;100.00
72612;BME280;60655;52.182;4.474;2024-03-22T03:46:13;101695.22;;;10.72;100.00
72612;BME280;60655;52.182;4.474;2024-03-22T03:48:14;101691.38;;;10.75;100.00
72612;BME280;60655;52.182;4.474;2024-03-22T03:50:15;101682.56;;;10.68;100.00
72612;BME280;60655;52.182;4.474;2024-03-22T03:52:16;101699.09;;;10.70;100.00
72612;BME280;60655;52.182;4.474;2024-03-22T03:54:17;101695.22;;;10.72;100.00
72612;BME280;60655;52.182;4.474;2024-03-22T03:56:18;101698.09;;;10.71;100.00
72612;BME280;60655;52.182;4.474;2024-03-22T03:58:19;101695.22;;;10.72;100.00
72612;BME280;60655;52.182;4.474;2024-03-22T04:00:20;101706.88;;;10.71;100.00
72612;BME280;60655;52.182;4.474;2024-03-22T04:02:21;101688.84;;;10.60;100.00
72612;BME280;60655;52.182;4.474;2024-03-22T04:04:22;101695.63;;;10.69;100.00
72612;BME280;60655;52.182;4.474;2024-03-22T04:06:23;101696.63;;;10.68;100.00
72612;BME280;60655;52.182;4.474;2024-03-22T04:08:25;101694.22;;;10.67;100.00
72612;BME280;60655;52.182;4.474;2024-03-22T04:10:26;101696.63;;;10.68;100.00
72612;BME280;60655;52.182;4.474;2024-03-22T04:12:27;101692.97;;;10.69;100.00
72612;BME280;60655;52.182;4.474;2024-03-22T04:14:28;101701.56;;;10.71;100.00
72612;BME280;60655;52.182;4.474;2024-03-22T04:16:29;101691.75;;;10.65;100.00
72612;BME280;60655;52.182;4.474;2024-03-22T04:18:30;101695.41;;;10.64;100.00
72612;BME280;60655;52.182;4.474;2024-03-22T04:20:31;101701.94;;;10.68;100.00
72612;BME280;60655;52.182;4.474;2024-03-22T04:22:32;101702.19;;;10.67;100.00
72612;BME280;60655;52.182;4.474;2024-03-22T04:24:34;101701.94;;;10.68;100.00
72612;BME280;60655;52.182;4.474;2024-03-22T04:26:35;101698.50;;;10.68;100.00
72612;BME280;60655;52.182;4.474;2024-03-22T04:28:36;101703.22;;;10.72;100.00
72612;BME280;60655;52.182;4.474;2024-03-22T04:30:36;101703.22;;;10.72;100.00
72612;BME280;60655;52.182;4.474;2024-03-22T04:32:38;101713.66;;;10.74;100.00
72612;BME280;60655;52.182;4.474;2024-03-22T04:34:42;101709.13;;;10.68;100.00
72612;BME280;60655;52.182;4.474;2024-03-22T04:36:43;101706.47;;;10.68;100.00
72612;BME280;60655;52.182;4.474;2024-03-22T04:38:44;101694.78;;;10.62;100.00
72612;BME280;60655;52.182;4.474;2024-03-22T04:40:45;101693.97;;;10.62;100.00
72612;BME280;60655;52.182;4.474;2024-03-22T04:42:46;101701.31;;;10.60;100.00
72612;BME280;60655;52.182;4.474;2024-03-22T04:44:47;101704.31;;;10.50;100.00
72612;BME280;60655;52.182;4.474;2024-03-22T04:46:48;101706.38;;;10.55;100.00
72612;BME280;60655;52.182;4.474;2024-03-22T04:48:49;101697.16;;;10.51;100.00
72612;BME280;60655;52.182;4.474;2024-03-22T04:50:51;101699.22;;;10.55;100.00
72612;BME280;60655;52.182;4.474;2024-03-22T04:52:52;101706.81;;;10.58;100.00
72612;BME280;60655;52.182;4.474;2024-03-22T04:54:53;101699.81;;;10.51;100.00
72612;BME280;60655;52.182;4.474;2024-03-22T04:56:54;101708.59;;;10.51;100.00
72612;BME280;60655;52.182;4.474;2024-03-22T04:58:55;101710.00;;;10.47;100.00
72612;BME280;60655;52.182;4.474;2024-03-22T05:00:57;101693.44;;;10.45;100.00
72612;BME280;60655;52.182;4.474;2024-03-22T05:02:58;101694.31;;;10.52;100.00
72612;BME280;60655;52.182;4.474;2024-03-22T05:04:59;101684.88;;;10.49;100.00
72612;BME280;60655;52.182;4.474;2024-03-22T05:07:00;101686.53;;;10.51;100.00
72612;BME280;60655;52.182;4.474;2024-03-22T05:09:01;101689.81;;;10.53;100.00
72612;BME280;60655;52.182;4.474;2024-03-22T05:11:04;101686.97;;;10.54;100.00
72612;BME280;60655;52.182;4.474;2024-03-22T05:13:05;101689.47;;;10.62;100.00
72612;BME280;60655;52.182;4.474;2024-03-22T05:15:06;101683.69;;;10.52;100.00
72612;BME280;60655;52.182;4.474;2024-03-22T05:17:07;101685.50;;;10.52;100.00
72612;BME280;60655;52.182;4.474;2024-03-22T05:19:08;101678.69;;;10.42;100.00
72612;BME280;60655;52.182;4.474;2024-03-22T05:21:09;101686.91;;;10.47;100.00
72612;BME280;60655;52.182;4.474;2024-03-22T05:23:10;101676.66;;;10.44;100.00
72612;BME280;60655;52.182;4.474;2024-03-22T05:25:11;101669.13;;;10.48;100.00
72612;BME280;60655;52.182;4.474;2024-03-22T05:27:13;101677.88;;;10.42;100.00
72612;BME280;60655;52.182;4.474;2024-03-22T05:29:14;101674.84;;;10.45;100.00
72612;BME280;60655;52.182;4.474;2024-03-22T05:31:15;101672.63;;;10.48;100.00
72612;BME280;60655;52.182;4.474;2024-03-22T05:33:16;101661.59;;;10.52;100.00
72612;BME280;60655;52.182;4.474;2024-03-22T05:35:17;101664.06;;;10.53;100.00
72612;BME280;60655;52.182;4.474;2024-03-22T05:37:19;101662.41;;;10.52;100.00
72612;BME280;60655;52.182;4.474;2024-03-22T05:39:20;101660.34;;;10.47;100.00
72612;BME280;60655;52.182;4.474;2024-03-22T05:41:21;101660.78;;;10.51;100.00
72612;BME280;60655;52.182;4.474;2024-03-22T05:43:22;101656.25;;;10.45;100.00
72612;BME280;60655;52.182;4.474;2024-03-22T05:45:23;101655.03;;;10.47;100.00
72612;BME280;60655;52.182;4.474;2024-03-22T05:47:24;101654.44;;;10.52;100.00
72612;BME280;60655;52.182;4.474;2024-03-22T05:49:25;101646.69;;;10.51;100.00
72612;BME280;60655;52.182;4.474;2024-03-22T05:51:26;101648.06;;;10.46;100.00
72612;BME280;60655;52.182;4.474;2024-03-22T05:53:27;101662.81;;;10.49;100.00
72612;BME280;60655;52.182;4.474;2024-03-22T05:55:28;101647.25;;;10.46;100.00
72612;BME280;60655;52.182;4.474;2024-03-22T05:57:31;101654.41;;;10.45;100.00
72612;BME280;60655;52.182;4.474;2024-03-22T05:59:32;101633.53;;;10.36;100.00
72612;BME280;60655;52.182;4.474;2024-03-22T06:01:33;101645.59;;;10.38;100.00
72612;BME280;60655;52.182;4.474;2024-03-22T06:03:34;101649.66;;;10.41;100.00
72612;BME280;60655;52.182;4.474;2024-03-22T06:05:35;101651.72;;;10.39;100.00
72612;BME280;60655;52.182;4.474;2024-03-22T06:07:36;101646.63;;;10.37;100.00
72612;BME280;60655;52.182;4.474;2024-03-22T06:09:42;101650.31;;;10.43;100.00
72612;BME280;60655;52.182;4.474;2024-03-22T06:11:46;101647.00;;;10.41;100.00
72612;BME280;60655;52.182;4.474;2024-03-22T06:13:47;101648.91;;;10.47;100.00
72612;BME280;60655;52.182;4.474;2024-03-22T06:15:49;101648.03;;;10.40;100.00
72612;BME280;60655;52.182;4.474;2024-03-22T06:17:50;101647.84;;;10.41;100.00
72612;BME280;60655;52.182;4.474;2024-03-22T06:19:51;101650.31;;;10.43;100.00
72612;BME280;60655;52.182;4.474;2024-03-22T06:21:52;101636.63;;;10.39;100.00
72612;BME280;60655;52.182;4.474;2024-03-22T06:23:53;101651.50;;;10.40;100.00
72612;BME280;60655;52.182;4.474;2024-03-22T06:25:55;101634.56;;;10.41;100.00
72612;BME280;60655;52.182;4.474;2024-03-22T06:27:56;101640.50;;;10.43;100.00
72612;BME280;60655;52.182;4.474;2024-03-22T06:29:57;101642.13;;;10.38;100.00
72612;BME280;60655;52.182;4.474;2024-03-22T06:31:58;101639.66;;;10.36;100.00
72612;BME280;60655;52.182;4.474;2024-03-22T06:33:59;101645.00;;;10.43;100.00
72612;BME280;60655;52.182;4.474;2024-03-22T06:36:03;101648.25;;;10.38;100.00
72612;BME280;60655;52.182;4.474;2024-03-22T06:38:04;101645.00;;;10.43;100.00
72612;BME280;60655;52.182;4.474;2024-03-22T06:40:06;101642.31;;;10.36;100.00
72612;BME280;60655;52.182;4.474;2024-03-22T06:42:07;101648.34;;;10.24;100.00
72612;BME280;60655;52.182;4.474;2024-03-22T06:44:08;101639.56;;;10.23;100.00
72612;BME280;60655;52.182;4.474;2024-03-22T06:46:12;101641.84;;;10.26;100.00
72612;BME280;60655;52.182;4.474;2024-03-22T06:48:13;101647.72;;;10.22;100.00
72612;BME280;60655;52.182;4.474;2024-03-22T06:50:15;101645.06;;;10.22;100.00
72612;BME280;60655;52.182;4.474;2024-03-22T06:52:18;101642.94;;;10.17;100.00
72612;BME280;60655;52.182;4.474;2024-03-22T06:54:20;101637.41;;;10.12;100.00
72612;BME280;60655;52.182;4.474;2024-03-22T06:56:21;101646.00;;;10.14;100.00
72612;BME280;60655;52.182;4.474;2024-03-22T06:58:22;101644.78;;;10.16;100.00
72612;BME280;60655;52.182;4.474;2024-03-22T07:00:23;101651.69;;;10.11;100.00
72612;BME280;60655;52.182;4.474;2024-03-22T07:02:24;101655.97;;;10.12;100.00
72612;BME280;60655;52.182;4.474;2024-03-22T07:04:24;101649.84;;;10.11;100.00
72612;BME280;60655;52.182;4.474;2024-03-22T07:06:25;101645.72;;;10.02;100.00
72612;BME280;60655;52.182;4.474;2024-03-22T07:08:26;101638.75;;;10.01;100.00
72612;BME280;60655;52.182;4.474;2024-03-22T07:10:27;101654.56;;;10.09;100.00
72612;BME280;60655;52.182;4.474;2024-03-22T07:12:28;101635.47;;;9.99;100.00
72612;BME280;60655;52.182;4.474;2024-03-22T07:14:29;101644.25;;;10.00;100.00
72612;BME280;60655;52.182;4.474;2024-03-22T07:16:30;101637.50;;;9.97;100.00
72612;BME280;60655;52.182;4.474;2024-03-22T07:18:31;101625.38;;;9.88;100.00
72612;BME280;60655;52.182;4.474;2024-03-22T07:20:32;101638.69;;;9.95;100.00
72612;BME280;60655;52.182;4.474;2024-03-22T07:22:33;101638.91;;;9.93;100.00
72612;BME280;60655;52.182;4.474;2024-03-22T07:24:34;101637.81;;;9.88;100.00
72612;BME280;60655;52.182;4.474;2024-03-22T07:26:34;101643.00;;;9.96;100.00
72612;BME280;60655;52.182;4.474;2024-03-22T07:28:35;101638.91;;;9.93;100.00
72612;BME280;60655;52.182;4.474;2024-03-22T07:30:36;101638.31;;;9.98;100.00
72612;BME280;60655;52.182;4.474;2024-03-22T07:32:37;101629.66;;;9.89;100.00
72612;BME280;60655;52.182;4.474;2024-03-22T07:34:38;101643.56;;;9.91;100.00
72612;BME280;60655;52.182;4.474;2024-03-22T07:36:40;101633.34;;;9.88;100.00
72612;BME280;60655;52.182;4.474;2024-03-22T07:38:40;101623.72;;;9.87;100.00
72612;BME280;60655;52.182;4.474;2024-03-22T07:40:41;101640.97;;;9.98;100.00
72612;BME280;60655;52.182;4.474;2024-03-22T07:42:42;101633.00;;;9.98;100.00
72612;BME280;60655;52.182;4.474;2024-03-22T07:44:43;101641.47;;;10.08;100.00
72612;BME280;60655;52.182;4.474;2024-03-22T07:46:44;101635.97;;;10.09;100.00
72612;BME280;60655;52.182;4.474;2024-03-22T07:48:45;101637.19;;;10.07;100.00
72612;BME280;60655;52.182;4.474;2024-03-22T07:50:46;101632.69;;;10.07;100.00
72612;BME280;60655;52.182;4.474;2024-03-22T07:52:47;101635.81;;;10.18;100.00
72612;BME280;60655;52.182;4.474;2024-03-22T07:54:48;101636.47;;;10.20;100.00
72612;BME280;60655;52.182;4.474;2024-03-22T07:56:49;101634.16;;;10.16;100.00
72612;BME280;60655;52.182;4.474;2024-03-22T07:58:50;101635.81;;;10.18;100.00
72612;BME280;60655;52.182;4.474;2024-03-22T08:00:51;101634.16;;;10.16;100.00
72612;BME280;60655;52.182;4.474;2024-03-22T08:02:52;101625.94;;;10.11;100.00
72612;BME280;60655;52.182;4.474;2024-03-22T08:04:53;101640.09;;;10.19;100.00
72612;BME280;60655;52.182;4.474;2024-03-22T08:06:54;101630.16;;;10.21;100.00
72612;BME280;60655;52.182;4.474;2024-03-22T08:08:55;101635.66;;;10.19;100.00
72612;BME280;60655;52.182;4.474;2024-03-22T08:10:56;101627.84;;;10.18;100.00
72612;BME280;60655;52.182;4.474;2024-03-22T08:12:57;101632.72;;;10.14;100.00
72612;BME280;60655;52.182;4.474;2024-03-22T08:14:58;101632.31;;;10.17;100.00
72612;BME280;60655;52.182;4.474;2024-03-22T08:16:59;101639.84;;;10.13;100.00
72612;BME280;60655;52.182;4.474;2024-03-22T08:19:00;101630.66;;;10.09;100.00
72612;BME280;60655;52.182;4.474;2024-03-22T08:21:01;101634.09;;;10.03;100.00
72612;BME280;60655;52.182;4.474;2024-03-22T08:23:02;101631.81;;;10.00;100.00
72612;BME280;60655;52.182;4.474;2024-03-22T08:25:03;101634.34;;;10.08;100.00
72612;BME280;60655;52.182;4.474;2024-03-22T08:27:05;101639.22;;;10.11;100.00
72612;BME280;60655;52.182;4.474;2024-03-22T08:29:06;101647.34;;;10.03;100.00
72612;BME280;60655;52.182;4.474;2024-03-22T08:31:07;101626.69;;;9.99;100.00
72612;BME280;60655;52.182;4.474;2024-03-22T08:33:08;101628.41;;;10.06;100.00
72612;BME280;60655;52.182;4.474;2024-03-22T08:35:09;101622.84;;;10.01;100.00
72612;BME280;60655;52.182;4.474;2024-03-22T08:37:10;101613.22;;;10.00;100.00
72612;BME280;60655;52.182;4.474;2024-03-22T08:39:11;101622.69;;;10.09;100.00
72612;BME280;60655;52.182;4.474;2024-03-22T08:41:12;101626.59;;;10.13;100.00
72612;BME280;60655;52.182;4.474;2024-03-22T08:43:13;101625.38;;;10.16;100.00
72612;BME280;60655;52.182;4.474;2024-03-22T08:45:14;101622.91;;;10.14;100.00
72612;BME280;60655;52.182;4.474;2024-03-22T08:47:15;101614.50;;;10.11;100.00
72612;BME280;60655;52.182;4.474;2024-03-22T08:49:15;101627.84;;;10.18;100.00
72612;BME280;60655;52.182;4.474;2024-03-22T08:51:16;101624.00;;;10.20;100.00
72612;BME280;60655;52.182;4.474;2024-03-22T08:53:17;101629.69;;;10.17;100.00
72612;BME280;60655;52.182;4.474;2024-03-22T08:55:18;101628.31;;;10.21;100.00
72612;BME280;60655;52.182;4.474;2024-03-22T08:57:19;101623.63;;;10.23;100.00
72612;BME280;60655;52.182;4.474;2024-03-22T08:59:20;101625.56;;;10.14;100.00
72612;BME280;60655;52.182;4.474;2024-03-22T09:01:21;101627.75;;;10.04;100.00
72612;BME280;60655;52.182;4.474;2024-03-22T09:03:22;101633.66;;;10.00;100.00
72612;BME280;60655;52.182;4.474;2024-03-22T09:05:24;101623.84;;;10.00;100.00
72612;BME280;60655;52.182;4.474;2024-03-22T09:07:25;101629.22;;;10.07;100.00
72612;BME280;60655;52.182;4.474;2024-03-22T09:09:25;101630.84;;;10.08;100.00
72612;BME280;60655;52.182;4.474;2024-03-22T09:11:26;101633.69;;;10.06;100.00
72612;BME280;60655;52.182;4.474;2024-03-22T09:13:27;101628.22;;;10.14;100.00
72612;BME280;60655;52.182;4.474;2024-03-22T09:15:28;101621.69;;;10.10;100.00
72612;BME280;60655;52.182;4.474;2024-03-22T09:17:29;101623.09;;;10.06;100.00
72612;BME280;60655;52.182;4.474;2024-03-22T09:19:30;101623.66;;;10.02;100.00
72612;BME280;60655;52.182;4.474;2024-03-22T09:21:32;101635.72;;;10.04;100.00
72612;BME280;60655;52.182;4.474;2024-03-22T09:23:33;101626.13;;;10.03;100.00
72612;BME280;60655;52.182;4.474;2024-03-22T09:25:33;101632.81;;;9.99;100.00
72612;BME280;60655;52.182;4.474;2024-03-22T09:27:34;101626.44;;;9.94;100.00
72612;BME280;60655;52.182;4.474;2024-03-22T09:29:38;101630.94;;;9.93;100.00
72612;BME280;60655;52.182;4.474;2024-03-22T09:31:39;101622.59;;;9.96;100.00
72612;BME280;60655;52.182;4.474;2024-03-22T09:33:40;101628.53;;;9.98;100.00
72612;BME280;60655;52.182;4.474;2024-03-22T09:35:41;101615.00;;;9.93;100.00
72612;BME280;60655;52.182;4.474;2024-03-22T09:37:42;101618.72;;;9.99;100.00
72612;BME280;60655;52.182;4.474;2024-03-22T09:39:43;101614.56;;;9.90;100.00
72612;BME280;60655;52.182;4.474;2024-03-22T09:41:45;101624.03;;;9.99;100.00
72612;BME280;60655;52.182;4.474;2024-03-22T09:43:48;101617.16;;;10.04;100.00
72612;BME280;60655;52.182;4.474;2024-03-22T09:45:51;101606.03;;;9.94;100.00
72612;BME280;60655;52.182;4.474;2024-03-22T09:47:52;101606.91;;;10.01;100.00
72612;BME280;60655;52.182;4.474;2024-03-22T09:49:56;101610.44;;;10.08;100.00
72612;BME280;60655;52.182;4.474;2024-03-22T09:51:57;101602.63;;;10.00;100.00
72612;BME280;60655;52.182;4.474;2024-03-22T09:53:59;101610.44;;;10.08;100.00
72612;BME280;60655;52.182;4.474;2024-03-22T09:56:00;101607.72;;;10.02;100.00
72612;BME280;60655;52.182;4.474;2024-03-22T09:58:02;101605.41;;;9.92;100.00
72612;BME280;60655;52.182;4.474;2024-03-22T10:00:07;101603.63;;;9.99;100.00
72612;BME280;60655;52.182;4.474;2024-03-22T10:02:11;101590.53;;;9.98;100.00
72612;BME280;60655;52.182;4.474;2024-03-22T10:04:13;101595.41;;;9.94;100.00
72612;BME280;60655;52.182;4.474;2024-03-22T10:06:14;101601.53;;;9.95;100.00
72612;BME280;60655;52.182;4.474;2024-03-22T10:08:14;101606.41;;;9.91;100.00
72612;BME280;60655;52.182;4.474;2024-03-22T10:10:15;101592.06;;;9.79;100.00
72612;BME280;60655;52.182;4.474;2024-03-22T10:12:16;101613.63;;;9.97;100.00
72612;BME280;60655;52.182;4.474;2024-03-22T10:14:17;101613.81;;;9.96;100.00
72612;BME280;60655;52.182;4.474;2024-03-22T10:16:18;101606.78;;;9.88;100.00
72612;BME280;60655;52.182;4.474;2024-03-22T10:18:19;101614.19;;;9.93;100.00
72612;BME280;60655;52.182;4.474;2024-03-22T10:20:19;101620.75;;;9.97;100.00
72612;BME280;60655;52.182;4.474;2024-03-22T10:22:20;101608.56;;;10.02;100.00
72612;BME280;60655;52.182;4.474;2024-03-22T10:24:21;101614.88;;;10.01;100.00
72612;BME280;60655;52.182;4.474;2024-03-22T10:26:22;101600.97;;;9.99;100.00